createdAt,value
2022-12-31T00:08:40.219Z,99.0
2022-12-31T00:22:40.212Z,99.0
2022-12-31T00:36:40.217Z,99.0
2022-12-31T00:50:40.195Z,99.0
2022-12-31T01:04:40.205Z,99.0
2022-12-31T01:18:40.273Z,99.0
2022-12-31T01:32:40.205Z,99.0
2022-12-31T01:46:40.257Z,99.0
2022-12-31T02:00:40.221Z,99.0
2022-12-31T02:14:40.222Z,99.0
2022-12-31T02:28:40.247Z,99.0
2022-12-31T02:42:40.249Z,99.0
2022-12-31T02:56:40.292Z,99.0
2022-12-31T03:10:40.398Z,99.0
2022-12-31T03:24:40.415Z,99.0
2022-12-31T03:38:40.500Z,99.0
2022-12-31T03:52:40.491Z,99.0
2022-12-31T04:06:40.637Z,99.0
2022-12-31T04:20:40.569Z,99.0
2022-12-31T04:34:40.554Z,99.0
2022-12-31T04:48:40.545Z,99.0
2022-12-31T05:02:40.672Z,99.0
2022-12-31T05:16:40.572Z,99.0
2022-12-31T05:30:40.613Z,99.0
2022-12-31T05:44:40.586Z,99.0
2022-12-31T05:58:40.587Z,99.0
2022-12-31T06:12:40.586Z,99.0
2022-12-31T06:26:40.600Z,99.0
2022-12-31T06:40:40.616Z,99.0
2022-12-31T06:55:40.617Z,99.0
2022-12-31T07:10:40.611Z,99.0
2022-12-31T07:26:40.583Z,99.0
2022-12-31T07:41:40.581Z,99.0
2022-12-31T07:56:40.703Z,99.0
2022-12-31T08:11:40.630Z,99.0
2022-12-31T08:26:40.632Z,98.0
2022-12-31T08:41:42.814Z,94.0
2022-12-31T08:56:41.407Z,90.0
2022-12-31T09:11:40.615Z,89.0
2022-12-31T09:26:40.642Z,87.0
2022-12-31T09:41:40.726Z,82.0
2022-12-31T09:56:40.703Z,79.0
2022-12-31T10:11:40.745Z,80.0
2022-12-31T10:26:40.731Z,85.0
2022-12-31T10:41:40.725Z,86.0
2022-12-31T10:56:40.755Z,82.0
2022-12-31T11:11:40.744Z,81.0
2022-12-31T11:26:40.747Z,80.0
2022-12-31T11:41:40.779Z,81.0
2022-12-31T11:57:40.778Z,80.0
2022-12-31T12:12:40.773Z,79.0
2022-12-31T12:27:40.797Z,80.0
2022-12-31T12:42:40.798Z,80.0
2022-12-31T12:57:40.804Z,81.0
2022-12-31T13:13:13.565Z,80.0
2022-12-31T13:27:40.829Z,81.0
2022-12-31T13:42:40.827Z,82.0
2022-12-31T13:57:40.810Z,81.0
2022-12-31T14:12:40.887Z,80.0
2022-12-31T14:28:46.605Z,79.0
2022-12-31T14:43:40.862Z,83.0
2022-12-31T14:58:40.847Z,87.0
2022-12-31T15:13:40.870Z,89.0
2022-12-31T15:28:40.881Z,92.0
2022-12-31T15:44:40.890Z,93.0
2022-12-31T16:00:40.902Z,94.0
2022-12-31T16:15:40.920Z,96.0
2022-12-31T16:29:40.898Z,96.0
2022-12-31T16:43:40.875Z,96.0
2022-12-31T16:57:40.923Z,97.0
2022-12-31T17:11:40.895Z,98.0
2022-12-31T17:25:40.919Z,98.0
2022-12-31T17:39:40.948Z,98.0
2022-12-31T17:53:41.000Z,99.0
2022-12-31T18:07:40.990Z,98.0
2022-12-31T18:21:41.084Z,98.0
2022-12-31T18:36:07.488Z,98.0
2022-12-31T18:49:41.103Z,98.0
2022-12-31T19:03:41.167Z,99.0
2022-12-31T19:17:41.255Z,98.0
2022-12-31T19:31:41.194Z,99.0
2022-12-31T19:45:41.283Z,99.0
2022-12-31T19:59:41.182Z,99.0
2022-12-31T20:13:41.204Z,99.0
2022-12-31T20:27:41.249Z,99.0
2022-12-31T20:41:41.235Z,99.0
2022-12-31T20:55:41.221Z,99.0
2022-12-31T21:09:41.245Z,99.0
2022-12-31T21:23:41.254Z,99.0
2022-12-31T21:37:57.800Z,99.0
2022-12-31T21:51:41.274Z,99.0
2022-12-31T22:05:41.296Z,99.0
2022-12-31T22:20:00.778Z,99.0
2022-12-31T22:33:41.488Z,99.0
2022-12-31T22:47:41.626Z,98.0
2022-12-31T23:01:41.836Z,98.0
2022-12-31T23:15:41.887Z,99.0
2022-12-31T23:29:45.941Z,99.0
2022-12-31T23:43:42.054Z,99.0
2022-12-31T23:57:42.046Z,99.0
